Time;durP1;ratioP1;P1;durP2;ratioP2;P2;SDS_P1;SDS_P2;PMS_P1;PMS_P2;Temp;Humidity;BMP_temperature;BMP_pressure;BME280_temperature;BME280_humidity;BME280_pressure;Samples;Min_cycle;Max_cycle;Signal;HPM_P1;HPM_P2
2022/01/30 00:00:32;;;;;;;13.00;2.80;;;;;;;6.17;42.58;101330.94;10128770;29;20712;-85
2022/01/30 00:05:34;;;;;;;15.47;2.80;;;;;;;6.04;43.22;101349.28;10161528;29;20235;-87
2022/01/30 00:10:39;;;;;;;13.53;2.50;;;;;;;5.53;44.15;101345.97;10178506;29;20574;-87
2022/01/30 00:15:49;;;;;;;14.37;2.43;;;;;;;5.74;43.97;101346.69;10164550;29;20279;-87
2022/01/30 00:21:09;;;;;;;13.83;2.93;;;;;;;5.47;44.99;101356.38;10149825;29;20280;-87
2022/01/30 00:26:14;;;;;;;13.00;2.30;;;;;;;5.61;45.16;101370.59;10166917;29;20326;-85
2022/01/30 00:31:19;;;;;;;9.03;2.00;;;;;;;5.46;45.43;101379.09;10164772;29;20193;-85
2022/01/30 00:36:30;;;;;;;17.97;3.00;;;;;;;5.37;45.33;101375.22;10128051;29;20599;-86
2022/01/30 00:41:35;;;;;;;12.80;2.57;;;;;;;5.89;44.59;101359.78;10125185;29;20233;-87
2022/01/30 00:46:38;;;;;;;14.87;3.47;;;;;;;5.40;44.86;101358.69;10140604;29;20607;-86
2022/01/30 00:51:41;;;;;;;12.43;2.80;;;;;;;5.79;44.43;101369.13;10164180;29;20197;-85
2022/01/30 00:56:44;;;;;;;17.43;2.93;;;;;;;5.77;44.13;101372.22;10179312;29;20204;-86
2022/01/30 01:01:47;;;;;;;16.30;2.50;;;;;;;6.06;43.55;101371.47;10170603;29;20221;-86
2022/01/30 01:06:50;;;;;;;16.27;2.87;;;;;;;5.65;44.35;101374.56;10134307;29;20223;-89
2022/01/30 01:27:37;;;;;;;15.10;2.40;;;;;;;5.26;43.14;101387.63;10122679;29;20246;-88
2022/01/30 01:32:40;;;;;;;13.03;2.47;;;;;;;5.69;43.04;101389.66;10126479;29;20559;-88
2022/01/30 01:37:42;;;;;;;15.13;2.37;;;;;;;5.14;44.19;101399.16;10121492;29;20213;-88
2022/01/30 01:42:44;;;;;;;11.07;2.70;;;;;;;5.81;42.24;101392.09;10120392;29;20281;-87
2022/01/30 01:47:47;;;;;;;12.30;2.23;;;;;;;6.08;42.03;101380.41;10117338;29;20217;-85
2022/01/30 01:52:49;;;;;;;15.23;2.70;;;;;;;5.84;43.23;101380.31;10121264;29;20244;-88
2022/01/30 01:57:51;;;;;;;16.20;3.03;;;;;;;5.40;44.47;101405.50;10127711;29;20220;-87
2022/01/30 02:03:12;;;;;;;15.90;2.80;;;;;;;5.79;43.36;101400.00;10139500;29;20253;-88
2022/01/30 02:13:44;;;;;;;12.00;2.47;;;;;;;5.30;44.72;101411.13;10145002;29;20256;-88
2022/01/30 02:24:13;;;;;;;16.03;2.73;;;;;;;4.17;47.26;101423.63;10137447;29;20216;-88
2022/01/30 02:29:17;;;;;;;14.90;3.37;;;;;;;5.23;45.15;101424.63;10148535;29;20276;-86
2022/01/30 02:34:24;;;;;;;15.30;2.93;;;;;;;5.62;44.11;101428.38;10133030;29;20236;-87
2022/01/30 02:39:27;;;;;;;15.47;2.63;;;;;;;5.08;44.80;101423.56;10135695;29;20268;-87
2022/01/30 02:50:36;;;;;;;19.33;3.87;;;;;;;5.27;44.52;101418.19;10158260;29;20252;-87
2022/01/30 02:55:05;;;;;;;23.13;3.70;;;;;;;5.26;44.61;101427.72;10144231;29;20259;-87
2022/01/30 03:00:10;;;;;;;12.60;2.97;;;;;;;4.63;46.42;101429.28;10130767;29;20311;-86
2022/01/30 03:05:12;;;;;;;20.57;3.27;;;;;;;5.19;45.31;101423.53;10164963;29;20217;-87
2022/01/30 03:10:15;;;;;;;19.60;3.93;;;;;;;4.26;47.79;101432.31;10139533;29;20228;-87
2022/01/30 03:15:17;;;;;;;17.77;3.83;;;;;;;5.07;45.97;101419.06;10138020;29;20546;-87
2022/01/30 03:20:21;;;;;;;17.70;3.63;;;;;;;5.23;45.58;101424.63;10140830;29;20524;-88
2022/01/30 03:25:25;;;;;;;23.23;3.47;;;;;;;6.11;43.82;101424.75;10128381;29;20510;-89
2022/01/30 03:30:39;;;;;;;22.83;3.97;;;;;;;4.37;47.26;101448.84;10149937;29;20275;-87
2022/01/30 03:35:50;;;;;;;16.37;2.90;;;;;;;4.25;47.45;101448.25;10176987;29;20213;-89
2022/01/30 03:40:53;;;;;;;16.63;2.80;;;;;;;4.80;46.28;101459.75;10130580;29;20486;-88
2022/01/30 03:45:56;;;;;;;23.53;4.37;;;;;;;4.40;46.65;101456.66;10142224;29;20598;-89
2022/01/30 03:50:58;;;;;;;15.57;2.97;;;;;;;4.60;46.62;101471.84;10157366;29;20281;-88
2022/01/30 03:56:01;;;;;;;17.00;3.70;;;;;;;5.29;44.73;101473.97;10128316;29;20236;-88
2022/01/30 04:01:05;;;;;;;13.27;3.27;;;;;;;4.82;46.05;101463.97;10139825;29;20717;-84
2022/01/30 04:06:12;;;;;;;18.97;3.07;;;;;;;4.15;46.85;101473.44;10154825;29;20260;-82
2022/01/30 04:11:15;;;;;;;17.47;3.00;;;;;;;4.12;47.66;101475.97;10136735;29;20256;-82
2022/01/30 04:16:31;;;;;;;15.70;2.87;;;;;;;4.41;46.55;101477.94;10155390;29;20233;-82
2022/01/30 04:21:56;;;;;;;18.87;3.03;;;;;;;4.73;46.77;101479.69;10135988;29;20397;-83
2022/01/30 04:27:20;;;;;;;10.93;2.47;;;;;;;4.47;46.87;101491.97;10153241;29;20256;-82
2022/01/30 04:32:49;;;;;;;25.03;3.53;;;;;;;5.13;45.15;101494.75;10143179;29;20228;-83
2022/01/30 04:38:28;;;;;;;18.53;2.80;;;;;;;5.46;44.73;101482.88;10129127;29;20268;-82
2022/01/30 04:56:12;;;;;;;16.03;2.70;;;;;;;4.21;46.80;101497.53;10156532;29;20247;-83
2022/01/30 05:01:12;;;;;;;16.53;2.50;;;;;;;4.84;45.79;101503.75;10158383;29;21111;-82
2022/01/30 05:06:30;;;;;;;13.17;2.00;;;;;;;5.33;43.68;101508.72;10137575;29;20208;-84
2022/01/30 05:12:11;;;;;;;11.50;2.23;;;;;;;4.03;46.36;101537.22;10150619;29;20256;-81
2022/01/30 05:17:18;;;;;;;12.20;2.27;;;;;;;4.14;46.71;101530.53;10136917;29;20685;-83
2022/01/30 05:22:43;;;;;;;12.60;2.20;;;;;;;4.67;45.32;101534.00;10152372;29;20321;-82
2022/01/30 05:28:06;;;;;;;9.97;2.50;;;;;;;5.05;45.23;101529.78;10138250;29;20259;-84
2022/01/30 05:33:15;;;;;;;14.40;2.80;;;;;;;4.17;46.55;101545.94;10132941;29;20208;-83
2022/01/30 05:38:30;;;;;;;10.17;2.40;;;;;;;4.23;46.29;101551.28;10132537;29;20213;-83
2022/01/30 05:43:56;;;;;;;9.77;2.00;;;;;;;4.59;45.31;101542.97;10151686;29;20255;-82
2022/01/30 05:49:27;;;;;;;14.23;2.43;;;;;;;4.86;45.45;101554.75;10139118;29;20267;-82
2022/01/30 05:54:52;;;;;;;11.37;1.90;;;;;;;4.46;46.22;101554.69;10117002;29;20255;-82
2022/01/30 05:59:54;;;;;;;15.43;2.20;;;;;;;5.02;44.82;101553.63;10167330;29;20209;-82
2022/01/30 06:05:17;;;;;;;15.97;2.60;;;;;;;4.64;45.85;101557.00;10160386;29;20235;-84
2022/01/30 06:10:21;;;;;;;12.73;3.50;;;;;;;5.59;43.15;101569.22;10145951;29;20264;-83
2022/01/30 06:15:23;;;;;;;16.30;2.87;;;;;;;5.34;43.02;101577.69;10142710;29;20275;-82
2022/01/30 06:20:35;;;;;;;10.00;2.17;;;;;;;4.79;44.44;101585.00;10149970;29;20228;-83
2022/01/30 06:26:10;;;;;;;12.13;2.20;;;;;;;4.88;44.51;101596.50;10168346;29;20197;-82
2022/01/30 06:31:51;;;;;;;11.10;2.30;;;;;;;5.29;42.95;101602.94;10088769;29;20623;-82
2022/01/30 06:37:12;;;;;;;15.80;2.80;;;;;;;4.73;45.28;101586.13;10151248;29;20299;-82
2022/01/30 06:42:38;;;;;;;14.23;2.17;;;;;;;4.92;44.18;101597.63;10136055;29;20305;-83
2022/01/30 06:47:59;;;;;;;11.17;1.90;;;;;;;4.39;45.02;101600.59;10164342;29;20688;-83
2022/01/30 06:53:20;;;;;;;10.03;2.27;;;;;;;5.15;43.77;101607.44;10152442;29;20765;-83
2022/01/30 06:58:55;;;;;;;13.70;2.40;;;;;;;4.89;44.30;101615.84;10147732;29;20231;-86
2022/01/30 07:04:16;;;;;;;13.37;3.07;;;;;;;4.64;45.13;101624.22;10156837;29;20247;-82
2022/01/30 07:09:44;;;;;;;16.90;2.97;;;;;;;4.72;44.39;101630.09;10141503;29;20259;-83
2022/01/30 07:14:46;;;;;;;11.17;2.40;;;;;;;4.13;45.39;101637.16;10155335;29;20578;-82
2022/01/30 07:19:48;;;;;;;19.77;2.47;;;;;;;4.85;44.42;101650.31;10145074;29;20228;-82
2022/01/30 07:24:50;;;;;;;14.07;2.43;;;;;;;4.73;44.65;101661.78;10152561;29;20284;-82
2022/01/30 07:29:52;;;;;;;11.60;2.20;;;;;;;4.45;45.64;101671.44;10136253;29;20248;-83
2022/01/30 07:35:00;;;;;;;18.60;2.70;;;;;;;4.49;44.86;101678.19;10150812;29;20256;-82
2022/01/30 07:40:03;;;;;;;19.67;3.57;;;;;;;4.69;45.41;101669.88;10170105;29;21090;-84
2022/01/30 07:45:06;;;;;;;17.20;2.73;;;;;;;4.12;45.97;101678.28;10141638;29;20268;-84
2022/01/30 07:50:09;;;;;;;13.37;2.97;;;;;;;4.51;45.11;101680.75;10136752;29;20240;-87
2022/01/30 07:55:11;;;;;;;18.03;2.80;;;;;;;5.06;43.59;101691.25;10144783;29;20327;-86
2022/01/30 08:00:14;;;;;;;13.13;2.47;;;;;;;4.99;44.22;101696.28;10154166;29;20572;-83
2022/01/30 08:05:16;;;;;;;19.80;2.63;;;;;;;4.64;44.94;101709.06;10153352;29;20728;-85
2022/01/30 08:10:19;;;;;;;12.03;2.73;;;;;;;4.21;45.81;101704.66;10138393;29;20339;-85
2022/01/30 08:15:22;;;;;;;10.60;2.10;;;;;;;5.53;42.84;101710.63;10133188;29;20300;-83
2022/01/30 08:20:27;;;;;;;14.83;2.33;;;;;;;5.26;43.49;101712.88;10150247;29;20236;-87
2022/01/30 08:25:29;;;;;;;15.87;2.87;;;;;;;4.41;45.20;101715.94;10148638;29;20256;-85
2022/01/30 08:30:32;;;;;;;14.57;2.97;;;;;;;4.51;45.10;101726.38;10127226;29;20235;-84
2022/01/30 08:35:36;;;;;;;13.23;2.40;;;;;;;5.35;42.88;101719.59;10126999;29;20240;-82
2022/01/30 08:40:38;;;;;;;15.77;2.90;;;;;;;4.50;45.25;101723.88;10143047;29;21011;-84
2022/01/30 08:45:42;;;;;;;14.70;3.07;;;;;;;4.55;44.98;101730.34;10165658;29;20316;-84
2022/01/30 08:50:45;;;;;;;15.07;3.57;;;;;;;4.81;44.09;101725.66;10151377;29;20212;-83
2022/01/30 08:55:48;;;;;;;17.10;2.00;;;;;;;3.96;46.01;101735.31;10149726;29;20255;-84
2022/01/30 09:00:50;;;;;;;11.70;3.10;;;;;;;4.98;43.93;101726.28;10151745;29;20284;-84
2022/01/30 09:05:52;;;;;;;16.90;3.43;;;;;;;5.14;43.79;101718.75;10163260;29;20715;-83
2022/01/30 09:10:57;;;;;;;16.03;2.70;;;;;;;5.58;42.91;101699.38;10151792;29;20260;-83
2022/01/30 09:16:01;;;;;;;16.27;2.80;;;;;;;4.82;44.30;101704.09;10162403;29;20634;-84
2022/01/30 09:21:04;;;;;;;13.63;3.13;;;;;;;5.13;43.91;101693.78;10142333;29;20243;-83
2022/01/30 09:26:08;;;;;;;25.73;3.30;;;;;;;5.38;43.81;101680.63;10122745;29;20232;-84
2022/01/30 09:31:10;;;;;;;15.20;3.20;;;;;;;5.43;43.47;101672.19;10140571;29;20284;-82
2022/01/30 09:36:14;;;;;;;16.17;3.30;;;;;;;5.54;43.40;101684.25;10136309;29;20224;-83
2022/01/30 09:41:22;;;;;;;10.83;2.73;;;;;;;4.90;43.80;101690.38;10108179;29;20252;-84
2022/01/30 09:46:25;;;;;;;20.30;3.40;;;;;;;5.65;42.82;101702.78;10132095;29;20307;-84
2022/01/30 09:51:27;;;;;;;14.07;3.77;;;;;;;5.84;42.71;101708.66;10127397;29;20677;-83
2022/01/30 09:56:30;;;;;;;17.97;2.87;;;;;;;4.94;44.81;101724.28;10148783;29;20263;-85
2022/01/30 10:01:37;;;;;;;17.00;3.10;;;;;;;5.21;43.90;101718.44;10153312;29;20284;-85
2022/01/30 10:06:56;;;;;;;14.50;3.20;;;;;;;4.60;44.52;101719.16;10149539;29;20212;-84
2022/01/30 10:12:19;;;;;;;18.33;3.30;;;;;;;5.53;42.60;101710.63;10143958;29;20228;-84
2022/01/30 10:17:26;;;;;;;17.90;3.10;;;;;;;5.44;42.83;101723.50;10131872;29;20292;-82
2022/01/30 10:22:29;;;;;;;11.47;2.13;;;;;;;4.35;44.64;101728.25;10161796;29;20653;-83
2022/01/30 10:27:33;;;;;;;24.50;3.60;;;;;;;5.35;41.91;101725.19;10141532;29;20235;-82
2022/01/30 10:32:35;;;;;;;24.03;3.27;;;;;;;4.75;43.09;101741.63;10127001;29;20284;-84
2022/01/30 10:37:39;;;;;;;15.40;2.83;;;;;;;4.39;43.80;101734.97;10143325;29;20231;-82
2022/01/30 10:42:48;;;;;;;22.57;4.60;;;;;;;5.32;42.16;101736.97;10139196;29;20256;-84
2022/01/30 10:47:50;;;;;;;13.40;4.03;;;;;;;4.51;42.56;101731.16;10136653;29;20232;-83
2022/01/30 10:52:56;;;;;;;16.27;3.40;;;;;;;4.69;42.83;101728.72;10124711;29;20252;-83
2022/01/30 10:58:00;;;;;;;24.73;3.80;;;;;;;4.92;41.46;101726.53;10161457;29;20270;-82
2022/01/30 11:03:04;;;;;;;24.70;4.23;;;;;;;6.02;40.01;101715.66;10130573;29;20338;-84
2022/01/30 11:08:21;;;;;;;16.97;4.03;;;;;;;5.01;40.52;101725.72;10127310;29;20288;-83
2022/01/30 11:13:32;;;;;;;13.20;2.97;;;;;;;6.13;37.36;101728.53;10145807;29;20299;-82
2022/01/30 11:18:36;;;;;;;21.83;3.93;;;;;;;5.75;37.89;101747.69;10134770;29;20240;-85
2022/01/30 11:23:40;;;;;;;20.70;3.43;;;;;;;4.85;40.12;101749.22;10149809;29;20740;-83
2022/01/30 11:28:45;;;;;;;18.70;3.23;;;;;;;4.11;39.81;101738.22;10154555;29;20581;-85
2022/01/30 11:33:48;;;;;;;13.00;3.17;;;;;;;4.31;40.18;101741.09;10137304;29;20232;-83
2022/01/30 11:38:50;;;;;;;20.47;4.87;;;;;;;4.72;39.93;101728.16;10148798;29;20614;-82
2022/01/30 11:44:17;;;;;;;20.57;4.07;;;;;;;4.96;39.17;101711.69;10157334;29;20252;-82
2022/01/30 11:49:20;;;;;;;23.73;4.47;;;;;;;3.98;40.67;101710.72;10144550;29;20228;-83
2022/01/30 11:54:45;;;;;;;18.80;4.03;;;;;;;5.78;37.47;101690.16;10161863;29;20264;-83
2022/01/30 12:00:00;;;;;;;31.77;4.00;;;;;;;4.89;38.81;101702.72;10143441;29;20291;-82
2022/01/30 12:05:14;;;;;;;17.50;3.43;;;;;;;4.17;40.04;101706.31;10145233;29;20252;-83
2022/01/30 12:10:17;;;;;;;19.00;3.43;;;;;;;5.72;38.01;101708.09;10152274;29;20585;-82
2022/01/30 12:15:42;;;;;;;20.50;4.17;;;;;;;5.15;38.78;101717.63;10160874;29;20287;-81
2022/01/30 12:20:59;;;;;;;21.67;3.83;;;;;;;4.71;39.13;101720.03;10142346;29;20672;-83
2022/01/30 12:26:05;;;;;;;24.37;4.00;;;;;;;5.77;37.32;101711.75;10127775;29;20259;-82
2022/01/30 12:31:42;;;;;;;18.30;4.23;;;;;;;4.90;38.66;101712.78;10140455;29;20248;-82
2022/01/30 12:36:55;;;;;;;24.00;3.80;;;;;;;5.01;38.82;101708.91;10041913;29;20240;-84
2022/01/30 12:41:57;;;;;;;16.87;4.83;;;;;;;4.22;39.56;101700.75;10147941;29;20208;-82
2022/01/30 12:46:59;;;;;;;26.50;5.00;;;;;;;5.79;36.52;101691.84;10125603;29;20248;-83
2022/01/30 12:52:04;;;;;;;24.03;5.33;;;;;;;5.32;38.01;101698.56;10137458;29;20311;-82
2022/01/30 12:57:09;;;;;;;20.43;4.17;;;;;;;4.09;38.24;101695.66;10125241;29;20593;-82
2022/01/30 13:02:12;;;;;;;21.47;4.20;;;;;;;5.94;35.74;101693.78;10139710;29;20299;-82
2022/01/30 13:07:14;;;;;;;23.80;5.50;;;;;;;5.78;35.96;101691.00;10122025;29;20255;-82
2022/01/30 13:12:17;;;;;;;21.17;4.13;;;;;;;5.46;36.27;101688.44;10152890;29;20260;-82
2022/01/30 13:17:27;;;;;;;18.17;3.73;;;;;;;5.68;35.80;101687.38;10138505;29;20228;-83
2022/01/30 13:22:36;;;;;;;15.63;4.10;;;;;;;4.76;37.78;101689.25;10123545;29;20315;-82
2022/01/30 13:27:43;;;;;;;24.10;3.83;;;;;;;5.48;36.97;101674.16;10156599;29;20236;-83
2022/01/30 13:32:45;;;;;;;20.67;4.97;;;;;;;4.74;39.23;101680.25;10159014;29;20554;-82
2022/01/30 13:37:48;;;;;;;20.00;3.53;;;;;;;4.79;39.54;101690.63;10127501;29;20276;-82
2022/01/30 13:42:59;;;;;;;20.67;5.53;;;;;;;5.67;38.79;101683.72;10131603;29;20337;-83
2022/01/30 13:48:31;;;;;;;23.20;4.60;;;;;;;4.99;38.24;101688.72;10154264;29;20565;-83
2022/01/30 13:53:36;;;;;;;25.30;4.57;;;;;;;6.18;36.74;101673.22;10146596;29;20664;-82
2022/01/30 13:58:43;;;;;;;16.23;3.47;;;;;;;5.55;36.66;101666.28;10164744;29;20593;-82
2022/01/30 14:03:48;;;;;;;19.60;4.17;;;;;;;6.23;34.97;101663.91;10162111;29;20562;-82
2022/01/30 14:08:58;;;;;;;18.17;3.80;;;;;;;5.56;36.14;101658.72;10127145;29;20307;-84
2022/01/30 14:14:06;;;;;;;17.33;3.90;;;;;;;5.60;35.29;101660.69;10142731;29;20648;-83
2022/01/30 14:19:24;;;;;;;23.60;4.40;;;;;;;6.42;34.66;101650.91;10156671;29;20621;-83
2022/01/30 14:24:27;;;;;;;15.37;4.00;;;;;;;6.44;34.03;101637.44;10133995;29;20314;-83
2022/01/30 14:29:30;;;;;;;16.63;4.10;;;;;;;6.30;34.34;101627.94;10148589;29;20228;-84
2022/01/30 14:34:33;;;;;;;20.63;3.90;;;;;;;4.82;35.48;101632.06;10144396;29;20271;-82
2022/01/30 14:39:37;;;;;;;19.73;4.07;;;;;;;5.36;35.03;101623.97;10148629;29;20235;-83
2022/01/30 14:44:40;;;;;;;16.77;4.77;;;;;;;5.81;34.13;101616.59;10137160;29;20253;-83
2022/01/30 14:49:44;;;;;;;21.97;4.40;;;;;;;5.53;34.66;101623.66;10144015;29;20232;-83
2022/01/30 14:54:48;;;;;;;20.07;3.90;;;;;;;4.81;36.45;101627.59;10153040;29;20307;-85
2022/01/30 14:59:50;;;;;;;23.77;4.60;;;;;;;6.06;35.18;101627.78;10169844;29;20239;-84
2022/01/30 15:04:54;;;;;;;25.93;4.87;;;;;;;5.94;35.26;101626.41;10142059;29;20264;-84
2022/01/30 15:09:57;;;;;;;21.70;4.37;;;;;;;5.61;35.61;101622.25;10171260;29;20304;-84
2022/01/30 15:15:00;;;;;;;18.80;4.23;;;;;;;5.95;34.83;101616.84;10154482;29;20306;-83
2022/01/30 15:20:04;;;;;;;21.30;5.43;;;;;;;5.36;35.30;101617.50;10152358;29;20236;-82
2022/01/30 15:25:09;;;;;;;19.77;5.00;;;;;;;6.23;34.30;101607.75;10156391;29;20224;-83
2022/01/30 15:30:11;;;;;;;17.57;4.03;;;;;;;5.29;34.84;101611.38;10129305;29;20232;-84
2022/01/30 15:35:14;;;;;;;23.20;5.10;;;;;;;6.20;34.72;101610.31;10130450;29;20240;-84
2022/01/30 15:40:17;;;;;;;21.70;4.70;;;;;;;5.73;35.38;101606.81;10151395;29;20319;-85
2022/01/30 15:50:26;;;;;;;22.87;4.47;;;;;;;5.47;36.60;101593.94;10158903;29;20240;-85
2022/01/30 15:55:29;;;;;;;13.90;3.73;;;;;;;5.86;36.33;101579.28;10131249;29;20644;-84
2022/01/30 16:00:31;;;;;;;21.00;4.00;;;;;;;5.63;35.80;101587.19;10137956;29;20208;-83
2022/01/30 16:05:34;;;;;;;19.90;3.97;;;;;;;6.15;34.92;101571.84;10135448;29;20260;-85
2022/01/30 16:10:37;;;;;;;19.27;4.30;;;;;;;5.81;36.19;101564.13;10128344;29;20260;-83
2022/01/30 16:15:39;;;;;;;20.10;3.87;;;;;;;6.33;35.59;101556.31;10131898;29;20577;-84
2022/01/30 16:20:44;;;;;;;20.07;3.77;;;;;;;5.66;36.43;101567.00;10153225;29;20814;-84
2022/01/30 16:25:46;;;;;;;22.63;4.70;;;;;;;5.98;36.61;101554.50;10158209;29;20310;-83
2022/01/30 16:30:49;;;;;;;26.70;5.13;;;;;;;6.01;36.12;101553.94;10175105;29;20271;-84
2022/01/30 16:35:51;;;;;;;21.53;5.33;;;;;;;6.48;34.69;101536.53;10167709;29;20232;-83
2022/01/30 16:40:53;;;;;;;27.23;4.63;;;;;;;5.28;36.31;101536.78;10151132;29;20351;-83
2022/01/30 16:46:04;;;;;;;21.57;4.70;;;;;;;6.10;35.04;101535.38;10154090;29;20307;-84
2022/01/30 16:51:08;;;;;;;21.07;4.90;;;;;;;6.18;35.25;101526.34;10169501;29;20314;-83
2022/01/30 16:56:11;;;;;;;23.30;5.10;;;;;;;6.07;35.26;101524.69;10149352;29;20311;-84
2022/01/30 17:01:13;;;;;;;18.23;4.60;;;;;;;5.58;36.32;101521.81;10144818;29;20279;-83
2022/01/30 17:06:16;;;;;;;27.13;6.73;;;;;;;6.38;35.12;101520.59;10142667;29;20722;-84
2022/01/30 17:11:20;;;;;;;19.80;5.87;;;;;;;6.42;34.66;101515.25;10144829;29;20263;-83
2022/01/30 17:16:23;;;;;;;21.07;6.30;;;;;;;6.42;35.60;101504.84;10128238;29;20228;-85
2022/01/30 17:21:25;;;;;;;19.87;4.23;;;;;;;6.52;35.03;101493.53;10140036;29;20232;-84
2022/01/30 17:26:28;;;;;;;18.50;4.67;;;;;;;6.43;35.59;101481.25;10146025;29;20613;-84
2022/01/30 17:31:30;;;;;;;20.60;4.93;;;;;;;6.37;36.31;101490.81;10156441;29;20676;-83
2022/01/30 17:36:33;;;;;;;22.93;6.37;;;;;;;6.18;36.36;101485.06;10131837;29;20239;-84
2022/01/30 17:41:36;;;;;;;27.90;7.23;;;;;;;6.25;36.09;101481.94;10118519;29;20240;-84
2022/01/30 17:46:38;;;;;;;35.97;8.13;;;;;;;5.86;37.16;101467.84;10145501;29;20615;-84
2022/01/30 17:51:41;;;;;;;24.13;8.27;;;;;;;5.89;37.25;101455.22;10147156;29;20240;-85
2022/01/30 17:56:44;;;;;;;27.33;8.13;;;;;;;5.62;36.71;101456.44;10134066;29;20236;-84
2022/01/30 18:01:48;;;;;;;24.33;7.50;;;;;;;5.77;36.97;101453.59;10145082;29;20260;-84
2022/01/30 18:06:55;;;;;;;23.33;5.20;;;;;;;5.86;36.19;101439.78;10127711;29;20268;-84
2022/01/30 18:11:59;;;;;;;20.13;5.40;;;;;;;5.48;37.28;101444.16;10137108;29;20315;-84
2022/01/30 18:17:01;;;;;;;21.47;5.77;;;;;;;5.12;37.94;101446.25;10128933;29;20283;-84
2022/01/30 18:22:04;;;;;;;20.60;5.60;;;;;;;5.30;37.28;101434.41;10148384;29;20240;-86
2022/01/30 18:27:08;;;;;;;15.50;5.07;;;;;;;5.55;36.38;101427.84;10133292;29;20303;-84
2022/01/30 18:32:10;;;;;;;25.33;6.07;;;;;;;5.45;35.93;101427.91;10131354;29;20622;-83
2022/01/30 18:37:18;;;;;;;21.37;5.63;;;;;;;5.40;36.67;101419.53;10129373;29;20323;-84
2022/01/30 18:42:20;;;;;;;15.00;5.17;;;;;;;5.35;35.79;101414.78;10145070;29;20231;-83
2022/01/30 18:47:22;;;;;;;21.43;5.77;;;;;;;5.41;36.48;101402.41;10129505;29;20272;-84
2022/01/30 18:52:25;;;;;;;27.23;5.53;;;;;;;5.18;36.94;101405.03;10146802;29;20568;-85
2022/01/30 18:57:27;;;;;;;20.83;5.53;;;;;;;5.10;36.56;101386.84;10127505;29;20824;-85
2022/01/30 19:02:31;;;;;;;15.10;3.93;;;;;;;5.31;37.12;101382.81;10157277;29;20205;-84
2022/01/30 19:07:35;;;;;;;24.27;4.83;;;;;;;4.98;37.59;101384.38;10165013;29;20576;-84
2022/01/30 19:12:37;;;;;;;17.90;5.10;;;;;;;5.22;36.78;101375.28;10127909;29;20259;-84
2022/01/30 19:17:39;;;;;;;20.90;5.17;;;;;;;4.61;37.55;101372.69;10150023;29;20232;-85
2022/01/30 19:22:42;;;;;;;27.70;6.67;;;;;;;4.60;37.75;101366.25;10170791;29;20569;-84
2022/01/30 19:27:44;;;;;;;17.63;5.33;;;;;;;5.34;36.50;101344.94;10153678;29;20595;-84
2022/01/30 19:32:46;;;;;;;22.10;5.43;;;;;;;5.08;37.13;101338.63;10155039;29;20672;-83
2022/01/30 19:37:49;;;;;;;16.17;4.60;;;;;;;4.82;37.57;101335.09;10150157;29;20765;-83
2022/01/30 19:42:54;;;;;;;26.47;5.43;;;;;;;4.46;38.86;101336.28;10136596;29;20318;-84
2022/01/30 19:47:58;;;;;;;16.50;4.27;;;;;;;4.26;39.95;101332.38;10154378;29;20984;-85
2022/01/30 19:53:03;;;;;;;23.27;5.87;;;;;;;4.56;38.57;101325.94;10155080;29;20292;-85
2022/01/30 19:58:06;;;;;;;22.07;5.30;;;;;;;4.90;38.12;101309.28;10136525;29;20228;-82
2022/01/30 20:03:09;;;;;;;22.60;5.67;;;;;;;4.58;38.56;101292.03;10151557;29;20617;-85
2022/01/30 20:08:12;;;;;;;21.93;5.07;;;;;;;4.59;39.33;101294.56;10166863;29;20252;-85
2022/01/30 20:13:14;;;;;;;19.57;5.07;;;;;;;4.78;38.54;101277.94;10151984;29;20248;-84
2022/01/30 20:18:17;;;;;;;22.23;5.43;;;;;;;4.44;38.69;101272.16;10167878;29;20260;-84
2022/01/30 20:23:19;;;;;;;20.37;5.27;;;;;;;4.72;39.06;101253.91;10134905;29;20296;-86
2022/01/30 20:28:23;;;;;;;22.43;5.60;;;;;;;4.73;38.33;101249.97;10146697;29;20268;-84
2022/01/30 20:33:26;;;;;;;23.10;5.00;;;;;;;4.66;38.49;101224.22;10133177;29;20232;-87
2022/01/30 20:38:29;;;;;;;19.73;6.03;;;;;;;4.83;38.04;101213.50;10150626;29;20205;-84
2022/01/30 20:43:31;;;;;;;18.27;4.47;;;;;;;5.15;37.81;101186.97;10166400;29;20213;-85
2022/01/30 20:48:33;;;;;;;20.60;4.97;;;;;;;4.34;39.26;101177.84;10170035;29;20221;-85
2022/01/30 20:53:37;;;;;;;22.80;4.50;;;;;;;4.74;39.25;101159.22;10147364;29;20232;-85
2022/01/30 20:58:40;;;;;;;18.57;4.47;;;;;;;4.72;38.52;101151.09;10149455;29;20204;-86
2022/01/30 21:03:42;;;;;;;23.50;4.47;;;;;;;4.89;38.32;101138.69;10115637;29;20216;-86
2022/01/30 21:08:50;;;;;;;17.73;4.43;;;;;;;4.16;40.20;101136.50;10168993;29;20634;-85
2022/01/30 21:13:53;;;;;;;21.67;6.60;;;;;;;4.44;40.01;101120.97;10149832;29;20600;-90
2022/01/30 21:18:55;;;;;;;16.73;5.53;;;;;;;4.56;39.31;101089.84;10156834;29;20209;-88
2022/01/30 21:24:04;;;;;;;17.73;4.53;;;;;;;4.99;38.83;101091.78;10149429;29;20506;-83
2022/01/30 21:29:07;;;;;;;14.73;3.53;;;;;;;5.18;38.41;101079.84;10145078;29;20217;-88
2022/01/30 21:34:09;;;;;;;15.20;3.23;;;;;;;4.35;39.85;101067.56;10122077;29;20630;-83
2022/01/30 21:39:12;;;;;;;17.33;3.50;;;;;;;4.58;39.44;101065.19;10158930;29;20208;-84
2022/01/30 21:44:15;;;;;;;21.47;3.77;;;;;;;4.22;40.78;101029.00;10163016;29;20229;-85
2022/01/30 21:49:17;;;;;;;17.27;3.27;;;;;;;3.83;41.32;101042.06;10163439;29;20192;-85
2022/01/30 21:54:21;;;;;;;13.17;3.70;;;;;;;4.23;40.38;101018.66;10172460;29;20284;-84
2022/01/30 21:59:24;;;;;;;14.27;3.33;;;;;;;3.78;41.77;100998.16;10155414;29;20259;-86
2022/01/30 22:04:26;;;;;;;13.00;3.23;;;;;;;3.87;41.72;100985.25;10176770;29;20233;-85
2022/01/30 22:09:28;;;;;;;11.30;3.40;;;;;;;3.56;42.19;100976.19;10161571;29;20304;-85
2022/01/30 22:15:01;;;;;;;11.37;3.20;;;;;;;3.58;42.32;100973.94;10159657;29;20622;-87
2022/01/30 22:20:06;;;;;;;11.40;3.37;;;;;;;3.88;41.63;100944.13;10149429;29;20220;-85
2022/01/30 22:25:09;;;;;;;18.17;4.00;;;;;;;4.13;41.21;100921.59;10160922;29;20216;-89
2022/01/30 22:30:15;;;;;;;13.13;3.33;;;;;;;3.50;42.58;100918.59;10165304;29;20631;-90
2022/01/30 22:35:18;;;;;;;13.03;3.60;;;;;;;3.77;42.22;100901.41;10143963;29;20279;-85
2022/01/30 22:40:22;;;;;;;20.77;4.30;;;;;;;3.72;42.42;100892.22;10143131;29;20228;-86
2022/01/30 22:45:26;;;;;;;10.57;3.60;;;;;;;3.83;42.31;100883.50;10167484;29;20287;-86
2022/01/30 22:50:29;;;;;;;10.47;3.50;;;;;;;4.30;41.10;100868.00;10168681;29;20201;-84
2022/01/30 22:55:31;;;;;;;10.47;2.97;;;;;;;3.86;42.29;100863.31;10168297;29;20228;-85
2022/01/30 23:00:35;;;;;;;9.97;3.07;;;;;;;4.36;41.10;100828.50;10153579;29;20268;-85
2022/01/30 23:05:37;;;;;;;17.27;3.20;;;;;;;4.27;40.85;100835.84;10159103;29;20626;-84
2022/01/30 23:10:40;;;;;;;11.80;3.33;;;;;;;4.67;40.41;100817.00;10140113;29;20284;-85
2022/01/30 23:15:42;;;;;;;8.93;2.97;;;;;;;3.75;42.09;100788.16;10157516;29;20213;-86
2022/01/30 23:20:45;;;;;;;13.93;3.60;;;;;;;3.83;42.12;100742.81;10160268;29;20684;-82
2022/01/30 23:25:47;;;;;;;13.63;3.47;;;;;;;4.14;41.30;100707.78;10166984;29;20248;-86
2022/01/30 23:30:50;;;;;;;10.13;3.60;;;;;;;3.53;42.75;100666.44;10168285;29;20236;-83
2022/01/30 23:35:53;;;;;;;8.57;2.90;;;;;;;4.06;41.29;100666.47;10152680;29;20237;-83
2022/01/30 23:40:55;;;;;;;8.00;2.80;;;;;;;3.69;41.93;100642.00;10183637;29;20252;-85
2022/01/30 23:45:57;;;;;;;9.97;3.00;;;;;;;3.58;42.06;100621.69;10150521;29;20284;-84
2022/01/30 23:51:00;;;;;;;9.37;2.80;;;;;;;4.00;41.14;100578.13;10155260;29;20209;-84
2022/01/30 23:56:03;;;;;;;8.50;2.47;;;;;;;3.52;42.45;100543.75;10161354;29;20229;-88
